createdAt,value
2023-02-18T00:01:23.429Z,45.72
2023-02-18T00:03:51.164Z,45.05
2023-02-18T00:06:27.165Z,45.08
2023-02-18T00:08:54.733Z,46.17
2023-02-18T00:11:22.431Z,46.03
2023-02-18T00:13:57.346Z,47.35
2023-02-18T00:16:26.009Z,46.70
2023-02-18T00:19:02.004Z,46.97
2023-02-18T00:21:29.357Z,45.53
2023-02-18T00:23:56.183Z,46.28
2023-02-18T00:26:23.012Z,44.97
2023-02-18T00:28:51.752Z,46.75
2023-02-18T00:31:23.422Z,47.97
2023-02-18T00:33:50.423Z,48.10
2023-02-18T00:36:19.271Z,48.55
2023-02-18T00:38:54.044Z,46.55
2023-02-18T00:41:22.659Z,48.08
2023-02-18T00:43:49.740Z,50.92
2023-02-18T00:46:16.907Z,51.72
2023-02-18T00:48:44.346Z,52.17
2023-02-18T00:51:12.284Z,48.97
2023-02-18T00:53:39.796Z,56.17
2023-02-18T00:56:07.552Z,51.95
2023-02-18T00:58:36.009Z,52.10
2023-02-18T01:01:05.282Z,54.58
2023-02-18T01:03:33.850Z,54.67
2023-02-18T01:06:00.791Z,54.65
2023-02-18T01:08:27.625Z,56.08
2023-02-18T01:10:57.134Z,57.50
2023-02-18T01:13:25.075Z,58.33
2023-02-18T01:15:52.076Z,55.42
2023-02-18T01:18:18.923Z,61.53
2023-02-18T01:20:46.174Z,60.80
2023-02-18T01:23:14.028Z,61.88
2023-02-18T01:25:41.246Z,69.43
2023-02-18T01:28:09.220Z,66.63
2023-02-18T01:30:36.178Z,67.88
2023-02-18T01:33:03.045Z,66.80
2023-02-18T01:35:30.126Z,62.70
2023-02-18T01:37:56.911Z,68.80
2023-02-18T01:40:28.298Z,63.88
2023-02-18T01:42:55.516Z,69.37
2023-02-18T01:46:06.656Z,68.30
2023-02-18T01:48:56.712Z,71.50
2023-02-18T01:51:37.588Z,65.80
2023-02-18T01:54:23.125Z,76.35
2023-02-18T01:57:07.087Z,76.15
2023-02-18T01:59:46.380Z,73.93
2023-02-18T02:02:16.860Z,78.53
2023-02-18T02:04:44.087Z,76.68
2023-02-18T02:07:11.556Z,81.45
2023-02-18T02:09:40.666Z,84.97
2023-02-18T02:12:33.357Z,83.72
2023-02-18T02:18:03.142Z,75.93
2023-02-18T02:21:07.337Z,86.10
2023-02-18T02:24:07.486Z,77.25
2023-02-18T02:26:55.419Z,86.85
2023-02-18T02:29:31.739Z,83.38
2023-02-18T02:32:17.588Z,76.90
2023-02-18T02:35:08.327Z,85.95
2023-02-18T02:37:59.949Z,82.65
2023-02-18T02:40:46.399Z,78.20
2023-02-18T02:43:43.772Z,84.75
2023-02-18T02:46:23.330Z,83.22
2023-02-18T02:49:11.656Z,89.38
2023-02-18T02:51:57.122Z,90.72
2023-02-18T02:54:26.132Z,92.85
2023-02-18T02:57:28.183Z,91.30
2023-02-18T03:00:01.077Z,87.67
2023-02-18T03:02:45.928Z,92.45
2023-02-18T03:05:34.438Z,92.10
2023-02-18T03:08:29.242Z,94.25
2023-02-18T03:11:11.877Z,92.90
2023-02-18T03:13:56.793Z,89.53
2023-02-18T03:16:26.748Z,90.47
2023-02-18T03:19:06.890Z,94.88
2023-02-18T03:21:48.146Z,91.47
2023-02-18T03:24:20.323Z,93.28
2023-02-18T03:26:55.720Z,92.60
2023-02-18T03:29:23.570Z,95.53
2023-02-18T03:31:55.615Z,97.65
2023-02-18T03:34:30.970Z,98.95
2023-02-18T03:36:59.964Z,102.28
2023-02-18T03:39:29.929Z,99.28
2023-02-18T03:41:57.140Z,99.10
2023-02-18T03:44:25.567Z,96.07
2023-02-18T03:46:53.173Z,98.97
2023-02-18T03:49:20.127Z,93.60
2023-02-18T03:51:47.399Z,86.97
2023-02-18T03:54:14.700Z,92.07
2023-02-18T03:56:42.564Z,98.32
2023-02-18T03:59:10.153Z,99.05
2023-02-18T04:01:37.020Z,101.75
2023-02-18T04:04:03.968Z,99.55
2023-02-18T04:06:31.122Z,101.68
2023-02-18T04:08:58.071Z,99.03
2023-02-18T04:11:24.855Z,96.30
2023-02-18T04:13:51.808Z,99.40
2023-02-18T04:16:18.683Z,98.90
2023-02-18T04:18:45.549Z,103.28
2023-02-18T04:21:12.365Z,94.82
2023-02-18T04:23:39.088Z,94.00
2023-02-18T04:26:05.972Z,98.88
2023-02-18T04:28:32.919Z,101.28
2023-02-18T04:30:59.831Z,101.00
2023-02-18T04:33:26.577Z,96.78
2023-02-18T04:35:53.366Z,99.30
2023-02-18T04:38:20.231Z,94.90
2023-02-18T04:40:47.037Z,96.60
2023-02-18T04:43:13.891Z,99.90
2023-02-18T04:45:40.708Z,101.18
2023-02-18T04:48:07.640Z,100.05
2023-02-18T04:50:35.143Z,95.95
2023-02-18T04:53:02.013Z,104.95
2023-02-18T04:55:28.910Z,108.75
2023-02-18T04:57:55.700Z,99.82
2023-02-18T05:00:22.575Z,97.53
2023-02-18T05:02:49.483Z,101.32
2023-02-18T05:05:16.378Z,96.13
2023-02-18T05:07:43.214Z,99.03
2023-02-18T05:10:11.561Z,97.65
2023-02-18T05:12:38.418Z,99.50
2023-02-18T05:15:05.617Z,96.40
2023-02-18T05:17:32.489Z,99.50
2023-02-18T05:19:59.412Z,95.65
2023-02-18T05:22:26.420Z,98.40
2023-02-18T05:24:53.351Z,101.55
2023-02-18T05:27:20.175Z,104.32
2023-02-18T05:29:47.035Z,110.13
2023-02-18T05:32:13.845Z,107.82
2023-02-18T05:34:40.795Z,106.00
2023-02-18T05:37:07.859Z,105.90
2023-02-18T05:39:34.706Z,102.43
2023-02-18T05:42:01.497Z,102.60
2023-02-18T05:44:31.331Z,98.75
2023-02-18T05:47:11.616Z,97.45
2023-02-18T05:49:40.200Z,97.60
2023-02-18T05:52:07.132Z,98.03
2023-02-18T05:54:34.840Z,99.38
2023-02-18T05:57:01.943Z,97.60
2023-02-18T05:59:29.139Z,96.50
2023-02-18T06:01:56.307Z,98.38
2023-02-18T06:04:23.182Z,96.95
2023-02-18T06:06:50.059Z,95.35
2023-02-18T06:09:17.082Z,91.43
2023-02-18T06:11:43.911Z,88.78
2023-02-18T06:14:10.772Z,92.90
2023-02-18T06:16:37.764Z,94.53
2023-02-18T06:19:04.760Z,93.50
2023-02-18T06:21:31.655Z,89.43
2023-02-18T06:23:58.713Z,87.05
2023-02-18T06:26:25.849Z,83.63
2023-02-18T06:28:52.718Z,79.68
2023-02-18T06:31:19.728Z,73.85
2023-02-18T06:33:46.736Z,74.53
2023-02-18T06:36:14.455Z,71.75
2023-02-18T06:38:43.405Z,68.10
2023-02-18T06:41:11.731Z,72.68
2023-02-18T06:43:38.976Z,71.03
2023-02-18T06:46:06.747Z,85.38
2023-02-18T06:48:34.221Z,83.25
2023-02-18T06:51:01.393Z,83.78
2023-02-18T06:53:28.334Z,91.28
2023-02-18T06:55:55.230Z,90.22
2023-02-18T06:58:23.319Z,94.70
2023-02-18T07:00:50.232Z,94.78
2023-02-18T07:03:17.041Z,96.60
2023-02-18T07:05:43.951Z,97.70
2023-02-18T07:08:10.828Z,99.88
2023-02-18T07:10:38.182Z,97.22
2023-02-18T07:13:05.760Z,99.28
2023-02-18T07:15:32.851Z,102.30
2023-02-18T07:17:59.972Z,102.15
2023-02-18T07:20:27.139Z,101.97
2023-02-18T07:22:54.397Z,102.50
2023-02-18T07:25:23.299Z,101.47
2023-02-18T07:27:50.718Z,103.90
2023-02-18T07:30:18.985Z,103.53
2023-02-18T07:32:45.898Z,101.95
2023-02-18T07:35:15.700Z,100.43
2023-02-18T07:37:49.940Z,101.93
2023-02-18T07:40:20.210Z,101.25
2023-02-18T07:42:47.206Z,99.82
2023-02-18T07:45:14.381Z,104.18
2023-02-18T07:47:42.244Z,103.10
2023-02-18T07:50:09.972Z,99.53
2023-02-18T07:52:36.798Z,97.60
2023-02-18T07:55:04.198Z,95.45
2023-02-18T07:57:31.053Z,96.85
2023-02-18T07:59:57.849Z,96.80
2023-02-18T08:02:25.098Z,98.38
2023-02-18T08:04:51.953Z,91.28
2023-02-18T08:07:22.314Z,83.50
2023-02-18T08:09:50.798Z,75.82
2023-02-18T08:12:17.892Z,71.68
2023-02-18T08:14:45.628Z,67.03
2023-02-18T08:17:12.491Z,71.38
2023-02-18T08:19:39.923Z,62.85
2023-02-18T08:22:06.765Z,65.93
2023-02-18T08:24:34.275Z,65.20
2023-02-18T08:27:01.757Z,68.75
2023-02-18T08:29:29.770Z,70.82
2023-02-18T08:31:59.999Z,68.53
2023-02-18T08:34:27.020Z,68.97
2023-02-18T08:36:53.830Z,68.85
2023-02-18T08:39:20.698Z,70.90
2023-02-18T08:41:47.855Z,71.85
2023-02-18T08:44:14.739Z,71.63
2023-02-18T08:46:41.551Z,69.57
2023-02-18T08:49:08.913Z,68.78
2023-02-18T08:51:35.758Z,67.75
2023-02-18T08:54:02.711Z,70.00
2023-02-18T08:56:30.036Z,67.50
2023-02-18T08:58:56.917Z,66.38
2023-02-18T09:01:23.860Z,65.75
2023-02-18T09:03:50.922Z,64.20
2023-02-18T09:06:17.779Z,66.65
2023-02-18T09:08:45.044Z,68.80
2023-02-18T09:11:11.984Z,104.93
2023-02-18T09:13:38.976Z,72.15
2023-02-18T09:16:18.551Z,71.85
2023-02-18T09:18:46.543Z,72.15
2023-02-18T09:21:15.767Z,71.95
2023-02-18T09:23:43.136Z,71.03
2023-02-18T09:26:14.167Z,73.03
2023-02-18T09:28:41.169Z,72.63
2023-02-18T09:31:17.496Z,76.03
2023-02-18T09:33:49.702Z,73.80
2023-02-18T09:36:21.768Z,78.25
2023-02-18T09:38:48.790Z,78.32
2023-02-18T09:41:43.024Z,79.25
2023-02-18T09:44:19.461Z,80.72
2023-02-18T09:46:54.254Z,81.43
2023-02-18T09:49:29.841Z,81.35
2023-02-18T09:52:01.980Z,83.78
2023-02-18T09:54:29.074Z,78.82
2023-02-18T09:56:56.228Z,78.10
2023-02-18T09:59:26.288Z,76.30
2023-02-18T10:01:54.693Z,82.63
2023-02-18T10:04:40.861Z,77.40
2023-02-18T10:07:18.992Z,75.78
2023-02-18T10:09:47.586Z,72.78
2023-02-18T10:12:18.486Z,75.90
2023-02-18T10:14:54.026Z,76.20
2023-02-18T10:17:23.926Z,78.45
2023-02-18T10:19:53.357Z,77.13
2023-02-18T10:22:22.355Z,77.35
2023-02-18T10:24:52.309Z,90.07
2023-02-18T10:27:29.541Z,84.13
2023-02-18T10:30:02.753Z,79.80
2023-02-18T10:32:40.585Z,82.90
2023-02-18T10:35:43.777Z,80.15
2023-02-18T10:38:22.720Z,81.10
2023-02-18T10:40:52.559Z,85.22
2023-02-18T10:43:29.637Z,84.90
2023-02-18T10:46:02.974Z,83.05
2023-02-18T10:48:36.162Z,83.75
2023-02-18T10:51:14.865Z,86.40
2023-02-18T10:53:43.964Z,84.55
2023-02-18T10:56:37.004Z,88.10
2023-02-18T10:59:20.685Z,86.30
2023-02-18T11:01:56.818Z,92.13
2023-02-18T11:04:35.811Z,91.72
2023-02-18T11:07:27.414Z,92.93
2023-02-18T11:09:56.794Z,94.57
2023-02-18T11:12:24.765Z,92.63
2023-02-18T11:15:24.465Z,94.85
2023-02-18T11:17:54.528Z,88.18
2023-02-18T11:20:27.075Z,90.47
2023-02-18T11:22:59.548Z,91.82
2023-02-18T11:25:33.112Z,91.18
2023-02-18T11:28:03.505Z,95.05
2023-02-18T11:30:37.100Z,92.30
2023-02-18T11:33:31.128Z,93.22
2023-02-18T11:36:03.324Z,91.68
2023-02-18T11:41:11.189Z,92.65
2023-02-18T11:43:42.577Z,96.38
2023-02-18T11:46:21.408Z,91.97
2023-02-18T11:48:49.112Z,97.75
2023-02-18T11:51:25.814Z,95.00
2023-02-18T11:54:02.729Z,95.05
2023-02-18T11:56:33.163Z,98.18
2023-02-18T11:59:02.422Z,100.22
2023-02-18T12:01:46.567Z,100.60
2023-02-18T12:04:19.291Z,101.45
2023-02-18T12:07:10.451Z,103.57
2023-02-18T12:09:37.696Z,99.65
2023-02-18T12:12:28.195Z,104.45
2023-02-18T12:14:55.915Z,107.00
2023-02-18T12:17:22.863Z,107.65
2023-02-18T12:20:27.714Z,105.82
2023-02-18T12:23:39.298Z,107.20
2023-02-18T12:26:21.143Z,104.53
2023-02-18T12:29:04.067Z,103.40
2023-02-18T12:31:53.867Z,105.97
2023-02-18T12:34:20.656Z,106.75
2023-02-18T12:37:06.174Z,105.70
2023-02-18T12:39:39.419Z,106.45
2023-02-18T12:42:25.107Z,107.22
2023-02-18T12:45:07.026Z,107.80
2023-02-18T12:48:27.641Z,105.32
2023-02-18T12:51:36.505Z,107.60
2023-02-18T12:54:07.097Z,107.13
2023-02-18T12:56:59.651Z,106.22
2023-02-18T13:05:19.669Z,103.45
2023-02-18T13:08:02.908Z,101.47
2023-02-18T13:10:47.471Z,100.93
2023-02-18T13:13:21.170Z,103.97
2023-02-18T13:15:57.763Z,104.47
2023-02-18T13:18:53.199Z,102.35
2023-02-18T13:21:20.176Z,101.35
2023-02-18T13:24:01.308Z,99.72
2023-02-18T13:26:31.501Z,100.05
2023-02-18T13:29:27.970Z,97.25
2023-02-18T13:32:02.679Z,94.20
2023-02-18T13:34:51.456Z,94.55
2023-02-18T13:37:45.859Z,94.47
2023-02-18T13:40:23.410Z,90.40
2023-02-18T13:42:54.085Z,90.45
2023-02-18T13:45:33.146Z,87.03
2023-02-18T13:48:01.244Z,89.35
2023-02-18T13:50:31.678Z,89.03
2023-02-18T13:53:07.619Z,85.20
2023-02-18T13:55:40.197Z,89.45
2023-02-18T13:58:17.126Z,87.82
2023-02-18T14:00:56.125Z,84.90
2023-02-18T14:03:56.282Z,87.13
2023-02-18T14:06:26.236Z,86.70
2023-02-18T14:09:12.931Z,85.15
2023-02-18T14:12:18.413Z,81.50
2023-02-18T14:14:45.840Z,77.47
2023-02-18T14:17:31.313Z,77.63
2023-02-18T14:20:01.486Z,79.90
2023-02-18T14:22:32.612Z,80.60
2023-02-18T14:25:25.365Z,80.63
2023-02-18T14:27:53.646Z,84.82
2023-02-18T14:30:25.549Z,86.57
2023-02-18T14:32:56.798Z,85.60
2023-02-18T14:35:40.033Z,85.03
2023-02-18T14:38:11.958Z,86.15
2023-02-18T14:40:57.601Z,85.72
2023-02-18T14:44:01.789Z,86.32
2023-02-18T14:46:48.110Z,85.82
2023-02-18T14:49:41.788Z,85.03
2023-02-18T14:52:21.900Z,84.80
2023-02-18T14:54:49.264Z,86.97
2023-02-18T14:57:27.104Z,85.00
2023-02-18T14:59:59.736Z,81.72
2023-02-18T15:02:30.933Z,85.28
2023-02-18T15:05:18.299Z,87.57
2023-02-18T15:08:08.846Z,85.13
2023-02-18T15:10:43.102Z,85.32
2023-02-18T15:13:23.814Z,86.40
2023-02-18T15:15:54.502Z,86.30
2023-02-18T15:18:34.350Z,82.95
2023-02-18T15:21:03.748Z,83.38
2023-02-18T15:23:31.827Z,83.65
2023-02-18T15:25:58.767Z,82.57
2023-02-18T15:28:32.049Z,84.13
2023-02-18T15:31:00.182Z,83.40
2023-02-18T15:33:27.844Z,86.47
2023-02-18T15:36:03.260Z,84.85
2023-02-18T15:38:31.040Z,86.68
2023-02-18T15:40:59.540Z,83.03
2023-02-18T15:43:30.053Z,82.18
2023-02-18T15:45:58.931Z,87.78
2023-02-18T15:48:45.416Z,95.72
2023-02-18T15:51:18.022Z,86.78
2023-02-18T15:53:49.167Z,86.40
2023-02-18T15:56:29.896Z,99.88
2023-02-18T15:59:28.072Z,88.03
2023-02-18T16:02:16.743Z,85.25
2023-02-18T16:04:50.149Z,82.60
2023-02-18T16:07:25.321Z,83.25
2023-02-18T16:10:09.864Z,83.82
2023-02-18T16:12:39.310Z,82.82
2023-02-18T16:15:06.757Z,83.60
2023-02-18T16:17:33.725Z,84.38
2023-02-18T16:20:16.890Z,82.50
2023-02-18T16:22:46.574Z,83.47
2023-02-18T16:25:13.381Z,89.90
2023-02-18T16:27:48.318Z,87.80
2023-02-18T16:30:27.589Z,87.20
2023-02-18T16:32:55.167Z,87.80
2023-02-18T16:35:23.201Z,90.65
2023-02-18T16:37:50.485Z,87.43
2023-02-18T16:40:23.600Z,93.22
2023-02-18T16:42:51.587Z,96.43
2023-02-18T16:45:19.382Z,102.00
2023-02-18T16:47:47.859Z,98.55
2023-02-18T16:50:20.943Z,98.97
2023-02-18T16:52:49.154Z,97.20
2023-02-18T16:55:24.765Z,93.20
2023-02-18T16:57:51.576Z,92.55
2023-02-18T17:00:19.306Z,91.38
2023-02-18T17:02:49.103Z,90.30
2023-02-18T17:05:28.094Z,95.72
2023-02-18T17:07:55.866Z,97.35
2023-02-18T17:10:22.679Z,101.93
2023-02-18T17:12:49.488Z,125.22
2023-02-18T17:15:30.765Z,127.82
2023-02-18T17:18:00.815Z,104.53
2023-02-18T17:20:30.051Z,103.85
2023-02-18T17:22:57.103Z,106.88
2023-02-18T17:25:33.439Z,112.72
2023-02-18T17:28:00.862Z,145.20
2023-02-18T17:30:28.017Z,105.75
2023-02-18T17:32:55.255Z,103.07
2023-02-18T17:35:24.010Z,102.07
2023-02-18T17:37:51.057Z,104.75
2023-02-18T17:40:21.204Z,100.38
2023-02-18T17:42:50.321Z,101.72
2023-02-18T17:45:22.414Z,102.85
2023-02-18T17:47:49.213Z,101.13
2023-02-18T17:50:16.623Z,99.32
2023-02-18T17:52:43.876Z,98.93
2023-02-18T17:55:21.138Z,99.65
2023-02-18T17:57:48.311Z,105.10
2023-02-18T18:00:31.004Z,104.65
2023-02-18T18:02:58.419Z,104.20
2023-02-18T18:05:29.285Z,101.82
2023-02-18T18:07:56.519Z,101.93
2023-02-18T18:10:28.781Z,90.13
2023-02-18T18:15:30.126Z,91.78
2023-02-18T18:17:58.448Z,95.00
2023-02-18T18:20:27.308Z,101.68
2023-02-18T18:22:56.367Z,107.18
2023-02-18T18:25:37.123Z,96.13
2023-02-18T18:28:05.266Z,93.82
2023-02-18T18:30:35.604Z,84.95
2023-02-18T18:33:03.095Z,85.32
2023-02-18T18:35:33.416Z,85.43
2023-02-18T18:38:01.058Z,81.72
2023-02-18T18:40:30.475Z,76.55
2023-02-18T18:42:59.603Z,75.63
2023-02-18T18:45:37.365Z,98.78
2023-02-18T18:48:05.539Z,104.78
2023-02-18T18:50:34.494Z,75.75
2023-02-18T18:53:01.294Z,68.82
2023-02-18T18:55:36.861Z,62.22
2023-02-18T18:58:04.305Z,65.47
2023-02-18T19:00:39.334Z,65.35
2023-02-18T19:03:06.709Z,60.45
2023-02-18T19:05:37.101Z,61.10
2023-02-18T19:08:05.411Z,57.58
2023-02-18T19:10:37.165Z,58.20
2023-02-18T19:13:05.127Z,60.28
2023-02-18T19:15:32.894Z,64.53
2023-02-18T19:18:00.006Z,63.75
2023-02-18T19:20:30.675Z,58.22
2023-02-18T19:22:57.505Z,61.72
2023-02-18T19:25:25.654Z,64.35
2023-02-18T19:27:52.872Z,63.90
2023-02-18T19:30:23.088Z,67.28
2023-02-18T19:32:55.577Z,66.65
2023-02-18T19:35:24.230Z,66.05
2023-02-18T19:37:51.236Z,67.18
2023-02-18T19:40:27.706Z,69.07
2023-02-18T19:42:54.683Z,69.50
2023-02-18T19:45:22.539Z,69.75
2023-02-18T19:47:57.137Z,65.68
2023-02-18T19:50:25.847Z,65.78
2023-02-18T19:52:53.786Z,65.93
2023-02-18T19:55:21.196Z,67.55
2023-02-18T19:57:48.323Z,69.22
2023-02-18T20:00:17.037Z,68.47
2023-02-18T20:02:44.170Z,67.57
2023-02-18T20:05:12.683Z,66.07
2023-02-18T20:07:41.565Z,67.97
2023-02-18T20:10:11.933Z,67.75
2023-02-18T20:12:39.450Z,70.28
2023-02-18T20:15:06.629Z,69.63
2023-02-18T20:17:33.813Z,69.90
2023-02-18T20:20:00.687Z,70.70
2023-02-18T20:22:28.010Z,72.28
2023-02-18T20:24:54.947Z,77.95
2023-02-18T20:27:22.021Z,77.40
2023-02-18T20:29:48.886Z,74.72
2023-02-18T20:32:18.467Z,69.55
2023-02-18T20:34:45.833Z,75.22
2023-02-18T20:37:12.603Z,73.43
2023-02-18T20:39:39.509Z,71.03
2023-02-18T20:42:16.004Z,63.80
2023-02-18T20:44:44.395Z,65.20
2023-02-18T20:47:13.805Z,69.00
2023-02-18T20:49:40.988Z,65.63
2023-02-18T20:52:09.041Z,77.18
2023-02-18T20:54:35.902Z,66.10
2023-02-18T20:57:03.141Z,66.40
2023-02-18T20:59:32.909Z,60.33
2023-02-18T21:02:00.126Z,62.33
2023-02-18T21:04:26.975Z,64.68
2023-02-18T21:06:54.315Z,76.53
2023-02-18T21:09:21.639Z,67.30
2023-02-18T21:11:48.922Z,70.70
2023-02-18T21:14:15.911Z,75.43
2023-02-18T21:16:42.920Z,84.43
2023-02-18T21:19:14.185Z,74.25
2023-02-18T21:21:41.886Z,74.60
2023-02-18T21:24:08.842Z,77.88
2023-02-18T21:26:36.207Z,74.28
2023-02-18T21:29:06.328Z,73.07
2023-02-18T21:31:39.550Z,71.72
2023-02-18T21:34:07.761Z,70.18
2023-02-18T21:36:35.001Z,65.20
2023-02-18T21:39:05.595Z,64.65
2023-02-18T21:41:34.521Z,67.88
2023-02-18T21:44:02.254Z,70.68
2023-02-18T21:46:31.876Z,67.20
2023-02-18T21:49:02.520Z,69.50
2023-02-18T21:51:52.460Z,69.55
2023-02-18T21:54:21.845Z,64.78
2023-02-18T21:56:49.827Z,66.70
2023-02-18T21:59:17.683Z,64.07
2023-02-18T22:01:44.652Z,66.43
2023-02-18T22:04:12.297Z,69.93
2023-02-18T22:06:39.431Z,71.68
2023-02-18T22:09:07.207Z,72.28
2023-02-18T22:11:34.639Z,67.18
2023-02-18T22:14:02.380Z,66.25
2023-02-18T22:16:29.576Z,63.67
2023-02-18T22:18:57.665Z,66.60
2023-02-18T22:21:25.090Z,70.95
2023-02-18T22:23:51.982Z,76.38
2023-02-18T22:26:18.916Z,75.28
2023-02-18T22:28:54.569Z,77.07
2023-02-18T22:31:23.103Z,76.50
2023-02-18T22:33:52.125Z,75.05
2023-02-18T22:36:21.045Z,77.15
2023-02-18T22:38:49.001Z,82.30
2023-02-18T22:41:18.264Z,80.95
2023-02-18T22:43:45.812Z,80.70
2023-02-18T22:46:19.170Z,84.47
2023-02-18T22:48:46.014Z,80.68
2023-02-18T22:51:18.820Z,83.55
2023-02-18T22:53:46.811Z,88.20
2023-02-18T22:56:16.150Z,87.03
2023-02-18T22:58:43.582Z,90.45
2023-02-18T23:01:25.182Z,90.38
2023-02-18T23:03:53.324Z,86.57
2023-02-18T23:06:21.581Z,87.50
2023-02-18T23:08:48.795Z,89.72
2023-02-18T23:11:18.826Z,88.43
2023-02-18T23:14:06.662Z,90.35
2023-02-18T23:16:54.049Z,87.70
2023-02-18T23:19:21.163Z,88.30
2023-02-18T23:21:48.209Z,91.00
2023-02-18T23:24:15.102Z,87.43
2023-02-18T23:26:42.726Z,88.50
2023-02-18T23:29:09.725Z,82.65
2023-02-18T23:31:39.589Z,84.28
2023-02-18T23:34:08.111Z,85.65
2023-02-18T23:36:36.005Z,86.95
2023-02-18T23:39:06.015Z,87.90
2023-02-18T23:41:32.948Z,86.97
2023-02-18T23:44:02.240Z,89.28
2023-02-18T23:46:29.065Z,85.38
2023-02-18T23:48:55.963Z,93.25
2023-02-18T23:51:23.562Z,95.20
2023-02-18T23:53:50.684Z,88.32
2023-02-18T23:56:21.838Z,91.90
2023-02-18T23:58:54.942Z,96.88
